Time,TemperatureF,DewpointF,PressureIn,WindDirection,WindDirectionDegrees,WindSpeedMPH,WindSpeedGustMPH,Humidity,HourlyPrecipIn,Conditions,Clouds,dailyrainin,SolarRadiationWatts/m^2,SoftwareType,DateUTC
2013-06-23 00:02:00,59.0,55.0,-100.00,ENE,67,0.0,6.0,87,0.00,,,0.00,0.000000,,2013-06-23 07:02:00,
2013-06-23 00:12:00,59.0,55.0,-100.00,ENE,67,0.0,6.0,87,0.00,,,0.00,0.000000,,2013-06-23 07:12:00,
2013-06-23 00:22:00,59.0,55.0,-100.00,ENE,67,0.0,6.0,87,0.00,,,0.00,0.000000,,2013-06-23 07:22:00,
2013-06-23 00:33:00,59.0,56.0,-100.00,NW,313,0.0,6.0,89,0.00,,,0.00,0.000000,,2013-06-23 07:33:00,
2013-06-23 01:02:00,59.0,56.0,-100.00,NW,313,0.0,6.0,89,0.00,,,0.00,0.000000,,2013-06-23 08:02:00,
2013-06-23 01:11:00,59.0,56.0,-100.00,NW,313,0.0,6.0,89,0.00,,,0.00,0.000000,,2013-06-23 08:11:00,
2013-06-23 01:22:00,59.0,56.0,-100.00,NW,313,0.0,6.0,89,0.00,,,0.00,0.000000,,2013-06-23 08:22:00,
2013-06-23 01:33:00,58.0,56.0,-100.00,East,85,2.0,6.0,93,0.00,,,0.00,0.000000,,2013-06-23 08:33:00,
2013-06-23 01:53:00,58.0,56.0,-100.00,East,85,2.0,6.0,93,0.00,,,0.00,0.000000,,2013-06-23 08:53:00,
2013-06-23 02:02:00,58.0,56.0,-100.00,East,85,2.0,6.0,93,0.00,,,0.00,0.000000,,2013-06-23 09:02:00,
2013-06-23 02:12:00,58.0,56.0,-100.00,East,85,2.0,6.0,93,0.00,,,0.00,0.000000,,2013-06-23 09:12:00,
2013-06-23 02:22:00,58.0,56.0,-100.00,East,85,2.0,6.0,93,0.00,,,0.00,0.000000,,2013-06-23 09:22:00,
2013-06-23 02:33:00,58.0,56.0,-100.00,NNE,26,0.0,5.0,94,0.00,,,0.00,0.000000,,2013-06-23 09:33:00,
2013-06-23 03:02:00,58.0,56.0,-100.00,NNE,26,0.0,5.0,94,0.00,,,0.00,0.000000,,2013-06-23 10:02:00,
2013-06-23 03:11:00,58.0,56.0,-100.00,NNE,26,0.0,5.0,94,0.00,,,0.00,0.000000,,2013-06-23 10:11:00,
2013-06-23 03:22:00,58.0,56.0,-100.00,NNE,26,0.0,5.0,94,0.00,,,0.00,0.000000,,2013-06-23 10:22:00,
2013-06-23 03:33:00,57.0,56.0,-100.00,NNW,329,0.0,3.0,97,0.01,,,0.01,0.000000,,2013-06-23 10:33:00,
2013-06-23 03:53:00,57.0,56.0,-100.00,NNW,329,0.0,3.0,97,0.01,,,0.01,0.000000,,2013-06-23 10:53:00,
2013-06-23 04:01:00,57.0,56.0,-100.00,NNW,329,0.0,3.0,97,0.01,,,0.01,0.000000,,2013-06-23 11:01:00,
2013-06-23 04:11:00,57.0,56.0,-100.00,NNW,329,0.0,3.0,97,0.01,,,0.01,0.000000,,2013-06-23 11:11:00,
2013-06-23 04:22:00,57.0,56.0,-100.00,NNW,329,0.0,3.0,97,0.01,,,0.01,0.000000,,2013-06-23 11:22:00,
2013-06-23 04:33:00,57.0,56.0,-100.00,North,3,2.0,3.0,98,0.01,,,0.02,0.000000,,2013-06-23 11:33:00,
2013-06-23 05:01:00,57.0,56.0,-100.00,North,3,2.0,3.0,98,0.01,,,0.02,0.000000,,2013-06-23 12:01:00,
2013-06-23 05:12:00,57.0,56.0,-100.00,North,3,2.0,3.0,98,0.01,,,0.02,0.000000,,2013-06-23 12:12:00,
2013-06-23 05:22:00,57.0,56.0,-100.00,North,3,2.0,3.0,98,0.01,,,0.02,0.000000,,2013-06-23 12:22:00,
2013-06-23 05:33:00,57.0,56.0,-100.00,North,1,0.0,2.0,98,0.01,,,0.03,1.000000,,2013-06-23 12:33:00,
2013-06-23 06:01:00,57.0,56.0,-100.00,North,1,0.0,2.0,98,0.01,,,0.03,1.000000,,2013-06-23 13:01:00,
2013-06-23 06:11:00,57.0,56.0,-100.00,North,1,0.0,2.0,98,0.01,,,0.03,1.000000,,2013-06-23 13:11:00,
2013-06-23 06:23:00,57.0,56.0,-100.00,North,1,0.0,2.0,98,0.01,,,0.03,1.000000,,2013-06-23 13:23:00,
2013-06-23 06:33:00,57.0,56.0,-100.00,West,262,0.0,3.0,98,0.00,,,0.03,25.000000,,2013-06-23 13:33:00,
2013-06-23 07:04:00,57.0,56.0,-100.00,West,262,0.0,3.0,98,0.00,,,0.03,25.000000,,2013-06-23 14:04:00,
2013-06-23 07:11:00,57.0,56.0,-100.00,West,262,0.0,3.0,98,0.00,,,0.03,25.000000,,2013-06-23 14:11:00,
2013-06-23 07:22:00,57.0,56.0,-100.00,West,262,0.0,3.0,98,0.00,,,0.03,25.000000,,2013-06-23 14:22:00,
2013-06-23 07:33:00,58.0,57.0,-100.00,NNW,340,0.0,2.0,97,0.01,,,0.04,58.000000,,2013-06-23 14:33:00,
2013-06-23 08:05:00,58.0,57.0,-100.00,NNW,340,0.0,2.0,97,0.01,,,0.04,58.000000,,2013-06-23 15:05:00,
2013-06-23 08:11:00,58.0,57.0,-100.00,NNW,340,0.0,2.0,97,0.01,,,0.04,58.000000,,2013-06-23 15:11:00,
2013-06-23 08:22:00,58.0,57.0,-100.00,NNW,340,0.0,2.0,97,0.01,,,0.04,58.000000,,2013-06-23 15:22:00,
2013-06-23 08:33:00,59.0,57.0,-100.00,North,355,1.0,3.0,92,0.02,,,0.06,85.000000,,2013-06-23 15:33:00,
2013-06-23 09:05:00,59.0,57.0,-100.00,North,355,1.0,3.0,92,0.02,,,0.06,85.000000,,2013-06-23 16:05:00,
2013-06-23 09:11:00,59.0,57.0,-100.00,North,355,1.0,3.0,92,0.02,,,0.06,85.000000,,2013-06-23 16:11:00,
2013-06-23 09:22:00,59.0,57.0,-100.00,North,355,1.0,3.0,92,0.02,,,0.06,85.000000,,2013-06-23 16:22:00,
2013-06-23 09:33:00,60.0,58.0,-100.00,North,9,1.0,2.0,94,0.03,,,0.09,114.000000,,2013-06-23 16:33:00,
2013-06-23 09:53:00,60.0,58.0,-100.00,North,9,1.0,2.0,94,0.03,,,0.09,114.000000,,2013-06-23 16:53:00,
2013-06-23 10:03:00,60.0,58.0,-100.00,North,9,1.0,2.0,94,0.03,,,0.09,114.000000,,2013-06-23 17:03:00,
2013-06-23 10:11:00,60.0,58.0,-100.00,North,9,1.0,2.0,94,0.03,,,0.09,114.000000,,2013-06-23 17:11:00,
2013-06-23 10:22:00,60.0,58.0,-100.00,North,9,1.0,2.0,94,0.03,,,0.09,114.000000,,2013-06-23 17:22:00,
2013-06-23 10:33:00,63.0,61.0,-100.00,West,276,0.0,4.0,92,0.01,,,0.10,232.000000,,2013-06-23 17:33:00,
2013-06-23 10:53:00,63.0,61.0,-100.00,West,276,0.0,4.0,92,0.01,,,0.10,232.000000,,2013-06-23 17:53:00,
2013-06-23 11:01:00,63.0,61.0,-100.00,West,276,0.0,4.0,92,0.01,,,0.10,232.000000,,2013-06-23 18:01:00,
2013-06-23 11:11:00,63.0,61.0,-100.00,West,276,0.0,4.0,92,0.01,,,0.10,232.000000,,2013-06-23 18:11:00,
2013-06-23 11:22:00,63.0,61.0,-100.00,West,276,0.0,4.0,92,0.01,,,0.10,232.000000,,2013-06-23 18:22:00,
2013-06-23 11:53:00,65.0,60.0,-100.00,ENE,66,2.0,6.0,84,0.00,,,0.10,305.000000,,2013-06-23 18:53:00,
2013-06-23 12:01:00,65.0,60.0,-100.00,ENE,66,2.0,6.0,84,0.00,,,0.10,305.000000,,2013-06-23 19:01:00,
2013-06-23 12:11:00,65.0,60.0,-100.00,ENE,66,2.0,6.0,84,0.00,,,0.10,305.000000,,2013-06-23 19:11:00,
2013-06-23 12:21:00,65.0,60.0,-100.00,ENE,66,2.0,6.0,84,0.00,,,0.10,305.000000,,2013-06-23 19:21:00,
2013-06-23 12:32:00,65.0,60.0,-100.00,ENE,66,2.0,6.0,84,0.00,,,0.10,305.000000,,2013-06-23 19:32:00,
2013-06-23 12:33:00,67.0,60.0,-100.00,South,181,1.0,4.0,77,0.00,,,0.10,243.000000,,2013-06-23 19:33:00,
2013-06-23 12:53:00,67.0,60.0,-100.00,South,181,1.0,4.0,77,0.00,,,0.10,243.000000,,2013-06-23 19:53:00,
2013-06-23 13:01:00,67.0,60.0,-100.00,South,181,1.0,4.0,77,0.00,,,0.10,243.000000,,2013-06-23 20:01:00,
2013-06-23 13:11:00,67.0,60.0,-100.00,South,181,1.0,4.0,77,0.00,,,0.10,243.000000,,2013-06-23 20:11:00,
2013-06-23 13:23:00,67.0,60.0,-100.00,South,181,1.0,4.0,77,0.00,,,0.10,243.000000,,2013-06-23 20:23:00,
2013-06-23 13:33:00,67.0,61.0,-100.00,South,180,2.0,5.0,80,0.01,,,0.11,279.000000,,2013-06-23 20:33:00,
2013-06-23 13:53:00,67.0,61.0,-100.00,South,180,2.0,5.0,80,0.01,,,0.11,279.000000,,2013-06-23 20:53:00,
2013-06-23 14:01:00,67.0,61.0,-100.00,South,180,2.0,5.0,80,0.01,,,0.11,279.000000,,2013-06-23 21:01:00,
2013-06-23 14:11:00,67.0,61.0,-100.00,South,180,2.0,5.0,80,0.01,,,0.11,279.000000,,2013-06-23 21:11:00,
2013-06-23 14:22:00,67.0,61.0,-100.00,South,180,2.0,5.0,80,0.01,,,0.11,279.000000,,2013-06-23 21:22:00,
2013-06-23 14:52:00,65.0,60.0,-100.00,SSE,156,3.0,7.0,85,0.02,,,0.13,271.000000,,2013-06-23 21:52:00,
2013-06-23 15:01:00,65.0,60.0,-100.00,SSE,156,3.0,7.0,85,0.02,,,0.13,271.000000,,2013-06-23 22:01:00,
2013-06-23 15:11:00,65.0,60.0,-100.00,SSE,156,3.0,7.0,85,0.02,,,0.13,271.000000,,2013-06-23 22:11:00,
2013-06-23 15:22:00,65.0,60.0,-100.00,SSE,156,3.0,7.0,85,0.02,,,0.13,271.000000,,2013-06-23 22:22:00,
2013-06-23 15:32:00,65.0,60.0,-100.00,SSE,156,3.0,7.0,85,0.02,,,0.13,271.000000,,2013-06-23 22:32:00,
2013-06-23 15:33:00,65.0,61.0,-100.00,SE,126,2.0,8.0,87,0.01,,,0.14,222.000000,,2013-06-23 22:33:00,
2013-06-23 15:53:00,65.0,61.0,-100.00,SE,126,2.0,8.0,87,0.01,,,0.14,222.000000,,2013-06-23 22:53:00,
2013-06-23 16:01:00,65.0,61.0,-100.00,SE,126,2.0,8.0,87,0.01,,,0.14,222.000000,,2013-06-23 23:01:00,
2013-06-23 16:11:00,65.0,61.0,-100.00,SE,126,2.0,8.0,87,0.01,,,0.14,222.000000,,2013-06-23 23:11:00,
2013-06-23 16:22:00,65.0,61.0,-100.00,SE,126,2.0,8.0,87,0.01,,,0.14,222.000000,,2013-06-23 23:22:00,
2013-06-23 16:33:00,64.0,62.0,-100.00,West,267,2.0,4.0,92,0.02,,,0.16,136.000000,,2013-06-23 23:33:00,
2013-06-23 16:52:00,64.0,62.0,-100.00,West,267,2.0,4.0,92,0.02,,,0.16,136.000000,,2013-06-23 23:52:00,
2013-06-23 17:01:00,64.0,62.0,-100.00,West,267,2.0,4.0,92,0.02,,,0.16,136.000000,,2013-06-24 00:01:00,
2013-06-23 17:11:00,64.0,62.0,-100.00,West,267,2.0,4.0,92,0.02,,,0.16,136.000000,,2013-06-24 00:11:00,
2013-06-23 17:22:00,64.0,62.0,-100.00,West,267,2.0,4.0,92,0.02,,,0.16,136.000000,,2013-06-24 00:22:00,
2013-06-23 18:01:00,64.0,62.0,-100.00,West,262,2.0,6.0,94,0.01,,,0.17,129.000000,,2013-06-24 01:01:00,
2013-06-23 18:11:00,64.0,62.0,-100.00,West,262,2.0,6.0,94,0.01,,,0.17,129.000000,,2013-06-24 01:11:00,
2013-06-23 18:21:00,64.0,62.0,-100.00,West,262,2.0,6.0,94,0.01,,,0.17,129.000000,,2013-06-24 01:21:00,
2013-06-23 18:32:00,64.0,62.0,-100.00,West,262,2.0,6.0,94,0.01,,,0.17,129.000000,,2013-06-24 01:32:00,
2013-06-23 18:33:00,62.0,61.0,-100.00,West,267,1.0,5.0,95,0.01,,,0.18,70.000000,,2013-06-24 01:33:00,
2013-06-23 18:53:00,62.0,61.0,-100.00,West,267,1.0,5.0,95,0.01,,,0.18,70.000000,,2013-06-24 01:53:00,
2013-06-23 19:01:00,62.0,61.0,-100.00,West,267,1.0,5.0,95,0.01,,,0.18,70.000000,,2013-06-24 02:01:00,
2013-06-23 19:11:00,62.0,61.0,-100.00,West,267,1.0,5.0,95,0.01,,,0.18,70.000000,,2013-06-24 02:11:00,
2013-06-23 19:21:00,62.0,61.0,-100.00,West,267,1.0,5.0,95,0.01,,,0.18,70.000000,,2013-06-24 02:21:00,
2013-06-23 19:33:00,62.0,60.0,-100.00,WSW,250,0.0,3.0,93,0.01,,,0.19,66.000000,,2013-06-24 02:33:00,
2013-06-23 19:53:00,62.0,60.0,-100.00,WSW,250,0.0,3.0,93,0.01,,,0.19,66.000000,,2013-06-24 02:53:00,
2013-06-23 20:01:00,62.0,60.0,-100.00,WSW,250,0.0,3.0,93,0.01,,,0.19,66.000000,,2013-06-24 03:01:00,
2013-06-23 20:11:00,62.0,60.0,-100.00,WSW,250,0.0,3.0,93,0.01,,,0.19,66.000000,,2013-06-24 03:11:00,
2013-06-23 20:22:00,62.0,60.0,-100.00,WSW,250,0.0,3.0,93,0.01,,,0.19,66.000000,,2013-06-24 03:22:00,
2013-06-23 20:33:00,60.0,59.0,-100.00,SW,217,0.0,2.0,95,0.01,,,0.20,27.000000,,2013-06-24 03:33:00,
2013-06-23 21:01:00,60.0,59.0,-100.00,SW,217,0.0,2.0,95,0.01,,,0.20,27.000000,,2013-06-24 04:01:00,
2013-06-23 21:11:00,60.0,59.0,-100.00,SW,217,0.0,2.0,95,0.01,,,0.20,27.000000,,2013-06-24 04:11:00,
2013-06-23 21:22:00,60.0,59.0,-100.00,SW,217,0.0,2.0,95,0.01,,,0.20,27.000000,,2013-06-24 04:22:00,
2013-06-23 21:33:00,59.0,58.0,-100.00,WNW,290,0.0,0.0,97,0.03,,,0.23,5.000000,,2013-06-24 04:33:00,
2013-06-23 21:53:00,59.0,58.0,-100.00,WNW,290,0.0,0.0,97,0.03,,,0.23,5.000000,,2013-06-24 04:53:00,
2013-06-23 22:02:00,59.0,58.0,-100.00,WNW,290,0.0,0.0,97,0.03,,,0.23,5.000000,,2013-06-24 05:02:00,
2013-06-23 22:12:00,59.0,58.0,-100.00,WNW,290,0.0,0.0,97,0.03,,,0.23,5.000000,,2013-06-24 05:12:00,
2013-06-23 22:22:00,59.0,58.0,-100.00,WNW,290,0.0,0.0,97,0.03,,,0.23,5.000000,,2013-06-24 05:22:00,
2013-06-23 22:33:00,59.0,58.0,-100.00,North,8,0.0,0.0,98,0.06,,,0.29,0.000000,,2013-06-24 05:33:00,
2013-06-23 23:12:00,59.0,58.0,-100.00,North,8,0.0,0.0,98,0.06,,,0.29,0.000000,,2013-06-24 06:12:00,
2013-06-23 23:22:00,59.0,58.0,-100.00,North,8,0.0,0.0,98,0.06,,,0.29,0.000000,,2013-06-24 06:22:00,
2013-06-23 23:33:00,59.0,59.0,-100.00,NE,47,0.0,0.0,99,0.02,,,0.31,0.000000,,2013-06-24 06:33:00,
2013-06-23 23:56:00,59.0,59.0,-100.00,NE,47,0.0,0.0,99,0.02,,,0.31,0.000000,,2013-06-24 06:56:00,